sensor_id;sensor_type;location;lat;lon;timestamp;temperature;humidity
5174;DHT22;2606;50.934;6.934;2023-03-01T00:02:03;2.40;96.80
5174;DHT22;2606;50.934;6.934;2023-03-01T00:04:30;2.40;96.90
5174;DHT22;2606;50.934;6.934;2023-03-01T00:06:55;2.40;97.20
5174;DHT22;2606;50.934;6.934;2023-03-01T00:09:21;2.40;97.60
5174;DHT22;2606;50.934;6.934;2023-03-01T00:11:49;2.40;97.50
5174;DHT22;2606;50.934;6.934;2023-03-01T00:14:15;2.30;97.60
5174;DHT22;2606;50.934;6.934;2023-03-01T00:16:44;2.30;97.80
5174;DHT22;2606;50.934;6.934;2023-03-01T00:19:17;2.20;98.30
5174;DHT22;2606;50.934;6.934;2023-03-01T00:21:43;2.20;98.40
5174;DHT22;2606;50.934;6.934;2023-03-01T00:24:09;2.20;98.50
5174;DHT22;2606;50.934;6.934;2023-03-01T00:26:36;2.10;98.30
5174;DHT22;2606;50.934;6.934;2023-03-01T00:29:01;2.10;98.30
5174;DHT22;2606;50.934;6.934;2023-03-01T00:31:29;2.10;98.30
5174;DHT22;2606;50.934;6.934;2023-03-01T00:33:57;2.00;98.30
5174;DHT22;2606;50.934;6.934;2023-03-01T00:36:26;2.00;98.20
5174;DHT22;2606;50.934;6.934;2023-03-01T00:38:53;1.90;98.20
5174;DHT22;2606;50.934;6.934;2023-03-01T00:41:20;1.90;98.30
5174;DHT22;2606;50.934;6.934;2023-03-01T00:43:45;1.90;98.30
5174;DHT22;2606;50.934;6.934;2023-03-01T00:46:14;1.80;98.30
5174;DHT22;2606;50.934;6.934;2023-03-01T00:48:40;1.80;98.40
5174;DHT22;2606;50.934;6.934;2023-03-01T00:51:14;1.80;98.50
5174;DHT22;2606;50.934;6.934;2023-03-01T00:53:41;1.80;98.50
5174;DHT22;2606;50.934;6.934;2023-03-01T00:56:08;1.80;98.40
5174;DHT22;2606;50.934;6.934;2023-03-01T00:58:34;1.80;98.30
5174;DHT22;2606;50.934;6.934;2023-03-01T01:01:00;1.80;98.30
5174;DHT22;2606;50.934;6.934;2023-03-01T01:03:26;1.70;98.30
5174;DHT22;2606;50.934;6.934;2023-03-01T01:05:52;1.70;98.30
5174;DHT22;2606;50.934;6.934;2023-03-01T01:08:19;1.70;98.20
5174;DHT22;2606;50.934;6.934;2023-03-01T01:10:46;1.70;98.20
5174;DHT22;2606;50.934;6.934;2023-03-01T01:13:12;1.80;98.20
5174;DHT22;2606;50.934;6.934;2023-03-01T01:15:38;1.70;98.20
5174;DHT22;2606;50.934;6.934;2023-03-01T01:18:03;1.70;98.10
5174;DHT22;2606;50.934;6.934;2023-03-01T01:20:29;1.70;98.20
5174;DHT22;2606;50.934;6.934;2023-03-01T01:22:54;1.70;98.20
5174;DHT22;2606;50.934;6.934;2023-03-01T01:25:20;1.70;98.20
5174;DHT22;2606;50.934;6.934;2023-03-01T01:27:46;1.70;98.20
5174;DHT22;2606;50.934;6.934;2023-03-01T01:30:12;1.70;98.50
5174;DHT22;2606;50.934;6.934;2023-03-01T01:32:38;1.70;98.20
5174;DHT22;2606;50.934;6.934;2023-03-01T01:35:04;1.60;98.20
5174;DHT22;2606;50.934;6.934;2023-03-01T01:37:30;1.60;98.20
5174;DHT22;2606;50.934;6.934;2023-03-01T01:39:59;1.60;98.20
5174;DHT22;2606;50.934;6.934;2023-03-01T01:42:25;1.60;98.20
5174;DHT22;2606;50.934;6.934;2023-03-01T01:45:27;1.60;98.20
5174;DHT22;2606;50.934;6.934;2023-03-01T01:47:55;1.60;98.20
5174;DHT22;2606;50.934;6.934;2023-03-01T01:50:21;1.60;98.30
5174;DHT22;2606;50.934;6.934;2023-03-01T01:52:48;1.60;98.30
5174;DHT22;2606;50.934;6.934;2023-03-01T01:55:19;1.60;98.30
5174;DHT22;2606;50.934;6.934;2023-03-01T01:57:50;1.60;98.30
5174;DHT22;2606;50.934;6.934;2023-03-01T02:00:20;1.50;98.20
5174;DHT22;2606;50.934;6.934;2023-03-01T02:02:49;1.50;98.20
5174;DHT22;2606;50.934;6.934;2023-03-01T02:08:03;1.50;98.20
5174;DHT22;2606;50.934;6.934;2023-03-01T02:10:29;1.50;98.30
5174;DHT22;2606;50.934;6.934;2023-03-01T02:12:58;1.50;98.30
5174;DHT22;2606;50.934;6.934;2023-03-01T02:15:25;1.50;98.30
5174;DHT22;2606;50.934;6.934;2023-03-01T02:17:52;1.50;98.20
5174;DHT22;2606;50.934;6.934;2023-03-01T02:20:35;1.50;98.20
5174;DHT22;2606;50.934;6.934;2023-03-01T02:23:02;1.50;98.20
5174;DHT22;2606;50.934;6.934;2023-03-01T02:30:45;1.50;98.40
5174;DHT22;2606;50.934;6.934;2023-03-01T02:33:31;1.50;98.60
5174;DHT22;2606;50.934;6.934;2023-03-01T02:35:59;1.50;98.50
5174;DHT22;2606;50.934;6.934;2023-03-01T02:38:25;1.50;98.60
5174;DHT22;2606;50.934;6.934;2023-03-01T02:40:52;1.50;98.60
5174;DHT22;2606;50.934;6.934;2023-03-01T02:43:23;1.50;98.60
5174;DHT22;2606;50.934;6.934;2023-03-01T02:45:51;1.50;98.60
5174;DHT22;2606;50.934;6.934;2023-03-01T02:48:19;1.50;98.70
5174;DHT22;2606;50.934;6.934;2023-03-01T02:51:05;1.40;99.10
5174;DHT22;2606;50.934;6.934;2023-03-01T02:56:18;1.30;98.90
5174;DHT22;2606;50.934;6.934;2023-03-01T02:58:44;1.30;98.90
5174;DHT22;2606;50.934;6.934;2023-03-01T03:01:12;1.30;98.90
5174;DHT22;2606;50.934;6.934;2023-03-01T03:03:40;1.20;98.90
5174;DHT22;2606;50.934;6.934;2023-03-01T03:06:06;1.10;98.90
5174;DHT22;2606;50.934;6.934;2023-03-01T03:08:32;1.20;99.10
5174;DHT22;2606;50.934;6.934;2023-03-01T03:10:57;1.10;99.20
5174;DHT22;2606;50.934;6.934;2023-03-01T03:13:23;1.10;99.20
5174;DHT22;2606;50.934;6.934;2023-03-01T03:15:54;1.10;99.40
5174;DHT22;2606;50.934;6.934;2023-03-01T03:18:21;1.00;99.40
5174;DHT22;2606;50.934;6.934;2023-03-01T03:20:47;1.00;99.50
5174;DHT22;2606;50.934;6.934;2023-03-01T03:23:13;1.00;99.40
5174;DHT22;2606;50.934;6.934;2023-03-01T03:25:39;1.00;99.50
5174;DHT22;2606;50.934;6.934;2023-03-01T03:28:06;0.90;99.50
5174;DHT22;2606;50.934;6.934;2023-03-01T03:30:36;0.90;99.60
5174;DHT22;2606;50.934;6.934;2023-03-01T03:33:02;0.90;99.70
5174;DHT22;2606;50.934;6.934;2023-03-01T03:35:34;0.90;99.90
5174;DHT22;2606;50.934;6.934;2023-03-01T03:38:03;0.90;99.90
5174;DHT22;2606;50.934;6.934;2023-03-01T03:40:38;0.90;99.90
5174;DHT22;2606;50.934;6.934;2023-03-01T03:43:05;0.90;99.90
5174;DHT22;2606;50.934;6.934;2023-03-01T03:45:32;0.90;99.90
5174;DHT22;2606;50.934;6.934;2023-03-01T03:47:59;0.90;99.90
5174;DHT22;2606;50.934;6.934;2023-03-01T03:50:25;0.80;99.90
5174;DHT22;2606;50.934;6.934;2023-03-01T03:52:51;0.80;99.90
5174;DHT22;2606;50.934;6.934;2023-03-01T03:55:16;0.80;99.90
5174;DHT22;2606;50.934;6.934;2023-03-01T03:57:45;0.80;99.90
5174;DHT22;2606;50.934;6.934;2023-03-01T04:00:18;0.70;99.90
5174;DHT22;2606;50.934;6.934;2023-03-01T04:02:44;0.70;99.90
5174;DHT22;2606;50.934;6.934;2023-03-01T04:05:11;0.70;99.90
5174;DHT22;2606;50.934;6.934;2023-03-01T04:07:38;0.70;99.90
5174;DHT22;2606;50.934;6.934;2023-03-01T04:10:05;0.60;99.90
5174;DHT22;2606;50.934;6.934;2023-03-01T04:12:32;0.60;99.90
5174;DHT22;2606;50.934;6.934;2023-03-01T04:15:00;0.60;99.90
5174;DHT22;2606;50.934;6.934;2023-03-01T04:17:25;0.60;99.90
5174;DHT22;2606;50.934;6.934;2023-03-01T04:19:51;0.50;99.90
5174;DHT22;2606;50.934;6.934;2023-03-01T04:22:17;0.50;99.90
5174;DHT22;2606;50.934;6.934;2023-03-01T04:24:44;0.50;99.90
5174;DHT22;2606;50.934;6.934;2023-03-01T04:27:11;0.50;99.90
5174;DHT22;2606;50.934;6.934;2023-03-01T04:29:37;0.50;99.90
5174;DHT22;2606;50.934;6.934;2023-03-01T04:32:02;0.40;99.90
5174;DHT22;2606;50.934;6.934;2023-03-01T04:34:29;0.40;99.90
5174;DHT22;2606;50.934;6.934;2023-03-01T04:37:10;0.40;99.90
5174;DHT22;2606;50.934;6.934;2023-03-01T04:40:06;0.40;99.90
5174;DHT22;2606;50.934;6.934;2023-03-01T04:42:41;0.40;99.90
5174;DHT22;2606;50.934;6.934;2023-03-01T04:45:08;0.30;99.90
5174;DHT22;2606;50.934;6.934;2023-03-01T04:47:39;0.30;99.90
5174;DHT22;2606;50.934;6.934;2023-03-01T04:50:05;0.30;99.90
5174;DHT22;2606;50.934;6.934;2023-03-01T04:52:30;0.30;99.90
5174;DHT22;2606;50.934;6.934;2023-03-01T04:54:57;0.30;99.90
5174;DHT22;2606;50.934;6.934;2023-03-01T04:57:22;0.30;99.90
5174;DHT22;2606;50.934;6.934;2023-03-01T04:59:48;0.30;99.90
5174;DHT22;2606;50.934;6.934;2023-03-01T05:02:13;0.30;99.90
5174;DHT22;2606;50.934;6.934;2023-03-01T05:04:39;0.20;99.90
5174;DHT22;2606;50.934;6.934;2023-03-01T05:07:05;0.20;99.90
5174;DHT22;2606;50.934;6.934;2023-03-01T05:09:30;0.20;99.90
5174;DHT22;2606;50.934;6.934;2023-03-01T05:11:56;0.20;99.90
5174;DHT22;2606;50.934;6.934;2023-03-01T05:14:21;0.20;99.90
5174;DHT22;2606;50.934;6.934;2023-03-01T05:16:48;0.20;99.90
5174;DHT22;2606;50.934;6.934;2023-03-01T05:19:14;0.20;99.90
5174;DHT22;2606;50.934;6.934;2023-03-01T05:21:48;0.20;99.90
5174;DHT22;2606;50.934;6.934;2023-03-01T05:24:31;0.20;99.90
5174;DHT22;2606;50.934;6.934;2023-03-01T05:26:57;0.30;99.90
5174;DHT22;2606;50.934;6.934;2023-03-01T05:29:24;0.30;99.90
5174;DHT22;2606;50.934;6.934;2023-03-01T05:31:57;0.30;99.90
5174;DHT22;2606;50.934;6.934;2023-03-01T05:34:34;0.30;99.90
5174;DHT22;2606;50.934;6.934;2023-03-01T05:37:01;0.30;99.90
5174;DHT22;2606;50.934;6.934;2023-03-01T05:39:28;0.30;99.90
5174;DHT22;2606;50.934;6.934;2023-03-01T05:41:59;0.30;99.90
5174;DHT22;2606;50.934;6.934;2023-03-01T05:44:25;0.20;99.90
5174;DHT22;2606;50.934;6.934;2023-03-01T05:46:51;0.30;99.90
5174;DHT22;2606;50.934;6.934;2023-03-01T05:49:17;0.30;99.90
5174;DHT22;2606;50.934;6.934;2023-03-01T05:51:47;0.20;99.90
5174;DHT22;2606;50.934;6.934;2023-03-01T05:54:13;0.20;99.90
5174;DHT22;2606;50.934;6.934;2023-03-01T05:56:38;0.20;99.90
5174;DHT22;2606;50.934;6.934;2023-03-01T05:59:04;0.20;99.90
5174;DHT22;2606;50.934;6.934;2023-03-01T06:01:31;0.30;99.90
5174;DHT22;2606;50.934;6.934;2023-03-01T06:03:57;0.30;99.90
5174;DHT22;2606;50.934;6.934;2023-03-01T06:06:23;0.30;99.90
5174;DHT22;2606;50.934;6.934;2023-03-01T06:08:49;0.30;99.90
5174;DHT22;2606;50.934;6.934;2023-03-01T06:11:15;0.30;99.90
5174;DHT22;2606;50.934;6.934;2023-03-01T06:13:42;0.30;99.90
5174;DHT22;2606;50.934;6.934;2023-03-01T06:16:09;0.30;99.90
5174;DHT22;2606;50.934;6.934;2023-03-01T06:18:35;0.30;99.90
5174;DHT22;2606;50.934;6.934;2023-03-01T06:21:01;0.40;99.90
5174;DHT22;2606;50.934;6.934;2023-03-01T06:23:26;0.30;99.90
5174;DHT22;2606;50.934;6.934;2023-03-01T06:25:53;0.30;99.90
5174;DHT22;2606;50.934;6.934;2023-03-01T06:28:18;0.30;99.90
5174;DHT22;2606;50.934;6.934;2023-03-01T06:30:44;0.30;99.90
5174;DHT22;2606;50.934;6.934;2023-03-01T06:33:09;0.30;99.90
5174;DHT22;2606;50.934;6.934;2023-03-01T06:35:35;0.30;99.90
5174;DHT22;2606;50.934;6.934;2023-03-01T06:38:02;0.30;99.90
5174;DHT22;2606;50.934;6.934;2023-03-01T06:40:28;0.30;99.90
5174;DHT22;2606;50.934;6.934;2023-03-01T06:42:54;0.30;99.90
5174;DHT22;2606;50.934;6.934;2023-03-01T06:45:21;0.40;99.90
5174;DHT22;2606;50.934;6.934;2023-03-01T06:47:46;0.40;99.90
5174;DHT22;2606;50.934;6.934;2023-03-01T06:50:13;0.40;99.90
5174;DHT22;2606;50.934;6.934;2023-03-01T06:52:39;0.40;99.90
5174;DHT22;2606;50.934;6.934;2023-03-01T06:55:05;0.50;99.90
5174;DHT22;2606;50.934;6.934;2023-03-01T06:57:31;0.50;99.90
5174;DHT22;2606;50.934;6.934;2023-03-01T06:59:56;0.50;99.90
5174;DHT22;2606;50.934;6.934;2023-03-01T07:02:22;0.50;99.90
5174;DHT22;2606;50.934;6.934;2023-03-01T07:04:51;0.50;99.90
5174;DHT22;2606;50.934;6.934;2023-03-01T07:07:17;0.50;99.90
5174;DHT22;2606;50.934;6.934;2023-03-01T07:09:46;0.50;99.90
5174;DHT22;2606;50.934;6.934;2023-03-01T07:12:12;0.50;99.90
5174;DHT22;2606;50.934;6.934;2023-03-01T07:14:37;0.40;99.90
5174;DHT22;2606;50.934;6.934;2023-03-01T07:17:03;0.40;99.90
5174;DHT22;2606;50.934;6.934;2023-03-01T07:19:28;0.50;99.90
5174;DHT22;2606;50.934;6.934;2023-03-01T07:21:54;0.50;99.90
5174;DHT22;2606;50.934;6.934;2023-03-01T07:24:21;0.50;99.90
5174;DHT22;2606;50.934;6.934;2023-03-01T07:26:50;0.50;99.90
5174;DHT22;2606;50.934;6.934;2023-03-01T07:29:17;0.60;99.90
5174;DHT22;2606;50.934;6.934;2023-03-01T07:31:42;0.60;99.90
5174;DHT22;2606;50.934;6.934;2023-03-01T07:34:08;0.70;99.90
5174;DHT22;2606;50.934;6.934;2023-03-01T07:36:34;0.80;99.90
5174;DHT22;2606;50.934;6.934;2023-03-01T07:38:59;0.90;99.90
5174;DHT22;2606;50.934;6.934;2023-03-01T07:41:28;0.90;99.90
5174;DHT22;2606;50.934;6.934;2023-03-01T07:43:53;1.00;99.90
5174;DHT22;2606;50.934;6.934;2023-03-01T07:46:19;1.10;99.90
5174;DHT22;2606;50.934;6.934;2023-03-01T07:48:44;1.10;99.90
5174;DHT22;2606;50.934;6.934;2023-03-01T07:51:10;1.20;99.90
5174;DHT22;2606;50.934;6.934;2023-03-01T07:53:37;1.20;99.70
5174;DHT22;2606;50.934;6.934;2023-03-01T07:56:07;1.30;99.40
5174;DHT22;2606;50.934;6.934;2023-03-01T07:58:41;1.30;98.70
5174;DHT22;2606;50.934;6.934;2023-03-01T08:01:09;1.30;98.70
5174;DHT22;2606;50.934;6.934;2023-03-01T08:03:36;1.30;98.70
5174;DHT22;2606;50.934;6.934;2023-03-01T08:06:03;1.30;98.70
5174;DHT22;2606;50.934;6.934;2023-03-01T08:08:30;1.40;98.70
5174;DHT22;2606;50.934;6.934;2023-03-01T08:10:59;1.40;98.30
5174;DHT22;2606;50.934;6.934;2023-03-01T08:13:26;1.50;98.30
5174;DHT22;2606;50.934;6.934;2023-03-01T08:15:52;1.40;98.20
5174;DHT22;2606;50.934;6.934;2023-03-01T08:18:19;1.50;98.40
5174;DHT22;2606;50.934;6.934;2023-03-01T08:20:45;1.50;98.30
5174;DHT22;2606;50.934;6.934;2023-03-01T08:23:11;1.60;98.40
5174;DHT22;2606;50.934;6.934;2023-03-01T08:25:37;1.60;98.20
5174;DHT22;2606;50.934;6.934;2023-03-01T08:28:03;1.70;98.10
5174;DHT22;2606;50.934;6.934;2023-03-01T08:30:29;1.70;98.10
5174;DHT22;2606;50.934;6.934;2023-03-01T08:32:54;1.80;98.20
5174;DHT22;2606;50.934;6.934;2023-03-01T08:35:20;1.90;97.80
5174;DHT22;2606;50.934;6.934;2023-03-01T08:37:46;1.90;97.90
5174;DHT22;2606;50.934;6.934;2023-03-01T08:40:12;2.00;97.90
5174;DHT22;2606;50.934;6.934;2023-03-01T08:42:39;2.10;97.70
5174;DHT22;2606;50.934;6.934;2023-03-01T08:45:06;2.20;97.40
5174;DHT22;2606;50.934;6.934;2023-03-01T08:47:33;2.20;97.10
5174;DHT22;2606;50.934;6.934;2023-03-01T08:49:59;2.30;96.80
5174;DHT22;2606;50.934;6.934;2023-03-01T08:52:25;2.40;96.90
5174;DHT22;2606;50.934;6.934;2023-03-01T08:54:51;2.50;96.80
5174;DHT22;2606;50.934;6.934;2023-03-01T08:57:17;2.60;96.70
5174;DHT22;2606;50.934;6.934;2023-03-01T08:59:43;2.70;96.60
5174;DHT22;2606;50.934;6.934;2023-03-01T09:02:13;2.80;96.10
5174;DHT22;2606;50.934;6.934;2023-03-01T09:04:39;2.90;96.00
5174;DHT22;2606;50.934;6.934;2023-03-01T09:07:05;2.90;95.70
5174;DHT22;2606;50.934;6.934;2023-03-01T09:09:31;3.00;95.60
5174;DHT22;2606;50.934;6.934;2023-03-01T09:11:56;3.10;95.40
5174;DHT22;2606;50.934;6.934;2023-03-01T09:14:22;3.20;94.90
5174;DHT22;2606;50.934;6.934;2023-03-01T09:16:47;3.30;94.70
5174;DHT22;2606;50.934;6.934;2023-03-01T09:19:13;3.40;94.80
5174;DHT22;2606;50.934;6.934;2023-03-01T09:21:39;3.50;94.40
5174;DHT22;2606;50.934;6.934;2023-03-01T09:24:15;3.60;94.10
5174;DHT22;2606;50.934;6.934;2023-03-01T09:26:40;3.70;94.00
5174;DHT22;2606;50.934;6.934;2023-03-01T09:29:06;3.80;93.60
5174;DHT22;2606;50.934;6.934;2023-03-01T09:31:31;3.90;93.90
5174;DHT22;2606;50.934;6.934;2023-03-01T09:33:57;4.00;93.50
5174;DHT22;2606;50.934;6.934;2023-03-01T09:36:24;4.20;93.20
5174;DHT22;2606;50.934;6.934;2023-03-01T09:38:52;4.30;93.00
5174;DHT22;2606;50.934;6.934;2023-03-01T09:44:30;4.70;92.60
5174;DHT22;2606;50.934;6.934;2023-03-01T09:46:59;4.90;92.20
5174;DHT22;2606;50.934;6.934;2023-03-01T09:49:30;5.10;90.90
5174;DHT22;2606;50.934;6.934;2023-03-01T09:52:06;5.20;90.10
5174;DHT22;2606;50.934;6.934;2023-03-01T09:54:37;5.50;90.80
5174;DHT22;2606;50.934;6.934;2023-03-01T09:57:19;6.00;89.40
5174;DHT22;2606;50.934;6.934;2023-03-01T10:00:11;6.60;87.80
5174;DHT22;2606;50.934;6.934;2023-03-01T10:02:52;7.20;87.50
5174;DHT22;2606;50.934;6.934;2023-03-01T10:05:31;7.80;79.70
5174;DHT22;2606;50.934;6.934;2023-03-01T10:10:57;8.60;74.20
5174;DHT22;2606;50.934;6.934;2023-03-01T10:13:47;8.90;69.80
5174;DHT22;2606;50.934;6.934;2023-03-01T10:16:28;9.10;67.60
5174;DHT22;2606;50.934;6.934;2023-03-01T10:19:00;9.50;65.70
5174;DHT22;2606;50.934;6.934;2023-03-01T10:21:28;9.80;61.00
5174;DHT22;2606;50.934;6.934;2023-03-01T10:24:01;9.70;61.00
5174;DHT22;2606;50.934;6.934;2023-03-01T10:26:56;9.90;61.50
5174;DHT22;2606;50.934;6.934;2023-03-01T10:29:30;10.20;59.60
5174;DHT22;2606;50.934;6.934;2023-03-01T10:31:57;10.30;57.50
5174;DHT22;2606;50.934;6.934;2023-03-01T10:34:30;10.50;57.60
5174;DHT22;2606;50.934;6.934;2023-03-01T10:37:04;10.50;54.90
5174;DHT22;2606;50.934;6.934;2023-03-01T10:39:33;10.40;54.80
5174;DHT22;2606;50.934;6.934;2023-03-01T10:42:19;10.50;54.70
5174;DHT22;2606;50.934;6.934;2023-03-01T10:44:48;10.80;54.90
5174;DHT22;2606;50.934;6.934;2023-03-01T10:47:21;11.10;55.10
5174;DHT22;2606;50.934;6.934;2023-03-01T10:52:32;11.60;51.50
5174;DHT22;2606;50.934;6.934;2023-03-01T10:55:33;11.70;50.40
5174;DHT22;2606;50.934;6.934;2023-03-01T10:58:18;11.70;49.60
5174;DHT22;2606;50.934;6.934;2023-03-01T11:00:50;11.80;49.10
5174;DHT22;2606;50.934;6.934;2023-03-01T11:03:21;11.90;48.70
5174;DHT22;2606;50.934;6.934;2023-03-01T11:08:44;11.80;47.30
5174;DHT22;2606;50.934;6.934;2023-03-01T11:13:56;11.90;46.20
5174;DHT22;2606;50.934;6.934;2023-03-01T11:16:35;11.80;46.10
5174;DHT22;2606;50.934;6.934;2023-03-01T11:19:15;11.40;45.30
5174;DHT22;2606;50.934;6.934;2023-03-01T11:22:03;10.90;46.80
5174;DHT22;2606;50.934;6.934;2023-03-01T11:24:40;10.80;48.00
5174;DHT22;2606;50.934;6.934;2023-03-01T11:27:31;10.90;48.80
5174;DHT22;2606;50.934;6.934;2023-03-01T11:33:01;11.10;47.30
5174;DHT22;2606;50.934;6.934;2023-03-01T11:35:28;11.00;47.50
5174;DHT22;2606;50.934;6.934;2023-03-01T11:40:57;10.80;47.80
5174;DHT22;2606;50.934;6.934;2023-03-01T11:43:46;10.60;47.60
5174;DHT22;2606;50.934;6.934;2023-03-01T11:46:33;10.20;48.30
5174;DHT22;2606;50.934;6.934;2023-03-01T11:49:37;10.10;49.20
5174;DHT22;2606;50.934;6.934;2023-03-01T12:00:04;9.20;51.90
5174;DHT22;2606;50.934;6.934;2023-03-01T12:05:56;8.90;53.30
5174;DHT22;2606;50.934;6.934;2023-03-01T12:08:46;8.70;53.80
5174;DHT22;2606;50.934;6.934;2023-03-01T12:11:16;8.60;54.10
5174;DHT22;2606;50.934;6.934;2023-03-01T12:20:04;8.20;55.80
5174;DHT22;2606;50.934;6.934;2023-03-01T12:42:05;7.70;60.30
5174;DHT22;2606;50.934;6.934;2023-03-01T12:47:27;7.60;61.30
5174;DHT22;2606;50.934;6.934;2023-03-01T12:49:57;7.50;62.00
5174;DHT22;2606;50.934;6.934;2023-03-01T12:52:38;7.50;62.00
5174;DHT22;2606;50.934;6.934;2023-03-01T12:55:35;7.60;61.20
5174;DHT22;2606;50.934;6.934;2023-03-01T12:58:08;7.50;60.70
5174;DHT22;2606;50.934;6.934;2023-03-01T13:01:00;7.60;61.30
5174;DHT22;2606;50.934;6.934;2023-03-01T13:04:06;7.60;60.80
5174;DHT22;2606;50.934;6.934;2023-03-01T13:07:10;7.60;61.80
5174;DHT22;2606;50.934;6.934;2023-03-01T13:34:01;8.00;62.20
5174;DHT22;2606;50.934;6.934;2023-03-01T13:39:26;8.00;61.30
5174;DHT22;2606;50.934;6.934;2023-03-01T13:41:54;8.00;60.60
5174;DHT22;2606;50.934;6.934;2023-03-01T13:46:46;8.00;61.30
5174;DHT22;2606;50.934;6.934;2023-03-01T13:49:20;8.10;61.10
5174;DHT22;2606;50.934;6.934;2023-03-01T13:51:47;8.10;60.40
5174;DHT22;2606;50.934;6.934;2023-03-01T13:54:25;8.20;59.70
5174;DHT22;2606;50.934;6.934;2023-03-01T13:56:52;8.20;59.70
5174;DHT22;2606;50.934;6.934;2023-03-01T13:59:20;8.10;59.90
5174;DHT22;2606;50.934;6.934;2023-03-01T14:02:12;8.20;59.40
5174;DHT22;2606;50.934;6.934;2023-03-01T14:04:38;8.20;59.50
5174;DHT22;2606;50.934;6.934;2023-03-01T14:07:23;8.20;58.80
5174;DHT22;2606;50.934;6.934;2023-03-01T14:09:57;8.20;59.10
5174;DHT22;2606;50.934;6.934;2023-03-01T14:15:22;8.20;58.50
5174;DHT22;2606;50.934;6.934;2023-03-01T14:18:12;8.30;58.50
5174;DHT22;2606;50.934;6.934;2023-03-01T14:20:43;8.30;58.20
5174;DHT22;2606;50.934;6.934;2023-03-01T14:23:14;8.30;57.90
5174;DHT22;2606;50.934;6.934;2023-03-01T14:25:48;8.30;58.10
5174;DHT22;2606;50.934;6.934;2023-03-01T14:28:15;8.30;58.10
5174;DHT22;2606;50.934;6.934;2023-03-01T14:30:44;8.30;57.90
5174;DHT22;2606;50.934;6.934;2023-03-01T14:35:59;8.30;56.50
5174;DHT22;2606;50.934;6.934;2023-03-01T14:38:39;8.30;56.30
5174;DHT22;2606;50.934;6.934;2023-03-01T14:41:09;8.30;56.50
5174;DHT22;2606;50.934;6.934;2023-03-01T14:43:38;8.30;56.60
5174;DHT22;2606;50.934;6.934;2023-03-01T14:46:05;8.30;58.60
5174;DHT22;2606;50.934;6.934;2023-03-01T14:48:31;8.40;60.60
5174;DHT22;2606;50.934;6.934;2023-03-01T14:50:57;8.40;61.20
5174;DHT22;2606;50.934;6.934;2023-03-01T14:53:25;8.40;61.40
5174;DHT22;2606;50.934;6.934;2023-03-01T14:55:54;8.40;62.00
5174;DHT22;2606;50.934;6.934;2023-03-01T14:58:23;8.40;62.60
5174;DHT22;2606;50.934;6.934;2023-03-01T15:00:55;8.40;63.70
5174;DHT22;2606;50.934;6.934;2023-03-01T15:03:46;8.40;64.10
5174;DHT22;2606;50.934;6.934;2023-03-01T15:06:18;8.30;64.90
5174;DHT22;2606;50.934;6.934;2023-03-01T15:08:47;8.30;65.50
5174;DHT22;2606;50.934;6.934;2023-03-01T15:13:40;8.30;66.80
5174;DHT22;2606;50.934;6.934;2023-03-01T15:16:24;8.30;66.90
5174;DHT22;2606;50.934;6.934;2023-03-01T15:18:56;8.30;66.80
5174;DHT22;2606;50.934;6.934;2023-03-01T15:21:25;8.30;67.50
5174;DHT22;2606;50.934;6.934;2023-03-01T15:24:16;8.30;68.30
5174;DHT22;2606;50.934;6.934;2023-03-01T15:27:05;8.30;68.70
5174;DHT22;2606;50.934;6.934;2023-03-01T15:29:32;8.20;69.20
5174;DHT22;2606;50.934;6.934;2023-03-01T15:32:05;8.20;69.30
5174;DHT22;2606;50.934;6.934;2023-03-01T15:34:38;8.20;69.90
5174;DHT22;2606;50.934;6.934;2023-03-01T15:37:06;8.20;69.80
5174;DHT22;2606;50.934;6.934;2023-03-01T15:39:54;8.10;69.60
5174;DHT22;2606;50.934;6.934;2023-03-01T15:45:21;8.10;69.50
5174;DHT22;2606;50.934;6.934;2023-03-01T15:47:49;8.00;69.20
5174;DHT22;2606;50.934;6.934;2023-03-01T15:50:22;8.00;69.10
5174;DHT22;2606;50.934;6.934;2023-03-01T15:52:47;7.90;69.10
5174;DHT22;2606;50.934;6.934;2023-03-01T15:57:44;7.80;69.70
5174;DHT22;2606;50.934;6.934;2023-03-01T16:00:11;7.80;69.80
5174;DHT22;2606;50.934;6.934;2023-03-01T16:02:41;7.70;69.40
5174;DHT22;2606;50.934;6.934;2023-03-01T16:05:23;7.70;69.70
5174;DHT22;2606;50.934;6.934;2023-03-01T16:07:49;7.70;69.70
5174;DHT22;2606;50.934;6.934;2023-03-01T16:10:16;7.60;69.80
5174;DHT22;2606;50.934;6.934;2023-03-01T16:12:41;7.60;69.90
5174;DHT22;2606;50.934;6.934;2023-03-01T16:15:15;7.60;69.80
5174;DHT22;2606;50.934;6.934;2023-03-01T16:17:42;7.60;69.80
5174;DHT22;2606;50.934;6.934;2023-03-01T16:20:08;7.60;70.10
5174;DHT22;2606;50.934;6.934;2023-03-01T16:22:34;7.60;70.00
5174;DHT22;2606;50.934;6.934;2023-03-01T16:24:59;7.60;70.00
5174;DHT22;2606;50.934;6.934;2023-03-01T16:27:25;7.60;70.00
5174;DHT22;2606;50.934;6.934;2023-03-01T16:29:50;7.60;70.20
5174;DHT22;2606;50.934;6.934;2023-03-01T16:32:16;7.60;70.00
5174;DHT22;2606;50.934;6.934;2023-03-01T16:34:42;7.60;70.00
5174;DHT22;2606;50.934;6.934;2023-03-01T16:37:07;7.60;70.20
5174;DHT22;2606;50.934;6.934;2023-03-01T16:39:33;7.50;70.10
5174;DHT22;2606;50.934;6.934;2023-03-01T16:42:00;7.50;70.30
5174;DHT22;2606;50.934;6.934;2023-03-01T16:44:26;7.50;70.40
5174;DHT22;2606;50.934;6.934;2023-03-01T16:46:51;7.50;70.60
5174;DHT22;2606;50.934;6.934;2023-03-01T16:49:17;7.50;70.10
5174;DHT22;2606;50.934;6.934;2023-03-01T16:51:43;7.40;70.00
5174;DHT22;2606;50.934;6.934;2023-03-01T16:54:10;7.30;70.20
5174;DHT22;2606;50.934;6.934;2023-03-01T16:56:36;7.30;70.50
5174;DHT22;2606;50.934;6.934;2023-03-01T16:59:04;7.30;70.40
5174;DHT22;2606;50.934;6.934;2023-03-01T17:01:30;7.30;70.50
5174;DHT22;2606;50.934;6.934;2023-03-01T17:04:00;7.30;70.60
5174;DHT22;2606;50.934;6.934;2023-03-01T17:06:26;7.30;70.70
5174;DHT22;2606;50.934;6.934;2023-03-01T17:08:52;7.20;70.60
5174;DHT22;2606;50.934;6.934;2023-03-01T17:11:19;7.20;70.80
5174;DHT22;2606;50.934;6.934;2023-03-01T17:13:46;7.20;70.90
5174;DHT22;2606;50.934;6.934;2023-03-01T17:16:14;7.10;70.80
5174;DHT22;2606;50.934;6.934;2023-03-01T17:18:40;7.10;71.10
5174;DHT22;2606;50.934;6.934;2023-03-01T17:21:09;7.10;71.20
5174;DHT22;2606;50.934;6.934;2023-03-01T17:23:36;7.00;71.00
5174;DHT22;2606;50.934;6.934;2023-03-01T17:26:03;7.00;71.10
5174;DHT22;2606;50.934;6.934;2023-03-01T17:28:30;7.00;71.20
5174;DHT22;2606;50.934;6.934;2023-03-01T17:30:58;6.90;71.30
5174;DHT22;2606;50.934;6.934;2023-03-01T17:33:24;6.90;71.20
5174;DHT22;2606;50.934;6.934;2023-03-01T17:35:50;6.80;71.20
5174;DHT22;2606;50.934;6.934;2023-03-01T17:38:16;6.70;71.20
5174;DHT22;2606;50.934;6.934;2023-03-01T17:40:43;6.70;71.40
5174;DHT22;2606;50.934;6.934;2023-03-01T17:43:13;6.70;71.70
5174;DHT22;2606;50.934;6.934;2023-03-01T17:45:39;6.60;71.80
5174;DHT22;2606;50.934;6.934;2023-03-01T17:48:05;6.60;71.90
5174;DHT22;2606;50.934;6.934;2023-03-01T17:50:31;6.60;72.20
5174;DHT22;2606;50.934;6.934;2023-03-01T17:52:57;6.50;72.20
5174;DHT22;2606;50.934;6.934;2023-03-01T17:55:23;6.50;72.40
5174;DHT22;2606;50.934;6.934;2023-03-01T17:57:49;6.50;72.60
5174;DHT22;2606;50.934;6.934;2023-03-01T18:00:16;6.50;72.90
5174;DHT22;2606;50.934;6.934;2023-03-01T18:02:42;6.40;72.90
5174;DHT22;2606;50.934;6.934;2023-03-01T18:05:09;6.30;73.40
5174;DHT22;2606;50.934;6.934;2023-03-01T18:07:35;6.20;73.40
5174;DHT22;2606;50.934;6.934;2023-03-01T18:10:01;6.20;74.00
5174;DHT22;2606;50.934;6.934;2023-03-01T18:12:26;6.20;74.40
5174;DHT22;2606;50.934;6.934;2023-03-01T18:14:52;6.10;74.50
5174;DHT22;2606;50.934;6.934;2023-03-01T18:17:22;6.10;74.60
5174;DHT22;2606;50.934;6.934;2023-03-01T18:19:48;6.20;75.00
5174;DHT22;2606;50.934;6.934;2023-03-01T18:22:14;6.00;74.90
5174;DHT22;2606;50.934;6.934;2023-03-01T18:24:41;6.00;75.30
5174;DHT22;2606;50.934;6.934;2023-03-01T18:27:07;6.00;75.50